Time;durP1;ratioP1;P1;durP2;ratioP2;P2;SDS_P1;SDS_P2;PMS_P1;PMS_P2;Temp;Humidity;BMP_temperature;BMP_pressure;BME280_temperature;BME280_humidity;BME280_pressure;Samples;Min_cycle;Max_cycle;Signal;HPM_P1;HPM_P2
2024/04/13 00:02:51;;;;;;;24.10;8.10;;;;;;;15.55;58.66;99771.56;67955;1276;1019778;-70
2024/04/13 00:05:53;;;;;;;25.60;8.60;;;;;;;15.42;58.74;99769.60;67938;1276;1016535;-62
2024/04/13 00:08:56;;;;;;;28.40;9.20;;;;;;;15.48;59.24;99769.17;67903;1276;1016562;-62
2024/04/13 00:11:58;;;;;;;27.10;9.10;;;;;;;15.62;57.78;99767.61;67891;1276;1018763;-62
2024/04/13 00:15:01;;;;;;;29.70;9.40;;;;;;;15.49;58.81;99766.85;67956;1276;1016284;-62
2024/04/13 00:18:06;;;;;;;25.50;8.80;;;;;;;15.46;59.51;99766.89;67943;1276;1017816;-62
2024/04/13 00:21:08;;;;;;;28.60;9.70;;;;;;;15.59;59.49;99764.63;67886;1276;1017057;-69
2024/04/13 00:24:11;;;;;;;24.90;8.60;;;;;;;15.72;59.41;99767.11;67900;1276;1016269;-70
2024/04/13 00:27:13;;;;;;;30.80;8.70;;;;;;;15.87;59.50;99763.50;67903;1276;1016271;-62
2024/04/13 00:30:15;;;;;;;;;;;;;;;16.04;59.06;99763.58;67949;1276;1018588;-69
2024/04/13 00:33:18;;;;;;;25.70;8.90;;;;;;;16.20;58.98;99762.77;67955;1276;1016412;-62
2024/04/13 00:36:21;;;;;;;27.60;9.40;;;;;;;16.29;58.49;99767.15;67929;1276;1015898;-62
2024/04/13 00:39:23;;;;;;;24.40;7.80;;;;;;;16.21;58.82;99762.58;67934;1276;1016469;-63
2024/04/13 00:42:26;;;;;;;25.90;8.00;;;;;;;16.23;58.85;99760.67;67879;1276;1016453;-63
2024/04/13 00:45:34;;;;;;;25.90;8.10;;;;;;;16.23;58.51;99760.65;67929;1276;1016333;-62
2024/04/13 00:48:37;;;;;;;23.70;8.40;;;;;;;16.46;57.46;99762.03;67905;1276;1016344;-62
2024/04/13 00:51:41;;;;;;;24.60;8.60;;;;;;;16.64;57.15;99762.59;67971;1276;1015887;-68
2024/04/13 00:54:45;;;;;;;29.10;9.30;;;;;;;16.53;58.04;99756.23;67919;1276;1016539;-62
2024/04/13 00:57:48;;;;;;;26.80;8.60;;;;;;;16.58;58.15;99758.21;67865;1276;1018759;-70
2024/04/13 01:00:50;;;;;;;27.10;9.40;;;;;;;16.54;58.46;99757.23;67799;1276;1016029;-63
2024/04/13 01:03:52;;;;;;;30.50;9.80;;;;;;;16.57;58.32;99756.70;67896;1276;1016462;-62
2024/04/13 01:06:54;;;;;;;27.00;8.30;;;;;;;16.60;58.44;99753.84;67892;1276;1016501;-62
2024/04/13 01:09:58;;;;;;;22.90;8.00;;;;;;;16.60;58.66;99752.23;67922;1259;1016599;-69
2024/04/13 01:13:02;;;;;;;24.70;8.40;;;;;;;16.64;58.72;99748.57;67899;1276;1016420;-70
2024/04/13 01:16:07;;;;;;;27.70;7.80;;;;;;;16.70;58.73;99751.67;67885;1276;1016482;-62
2024/04/13 01:19:09;;;;;;;;;;;;;;;16.75;58.98;99746.95;67924;1276;1016001;-66
2024/04/13 01:22:12;;;;;;;24.20;7.40;;;;;;;16.76;59.18;99745.44;67902;1276;1016552;-62
2024/04/13 01:25:14;;;;;;;24.60;8.80;;;;;;;16.78;58.94;99744.42;67913;1276;1016235;-62
2024/04/13 01:28:17;;;;;;;25.50;7.80;;;;;;;16.79;59.10;99743.30;67869;1276;1016217;-62
2024/04/13 01:31:19;;;;;;;23.50;8.80;;;;;;;16.87;59.03;99744.65;67952;1276;1016447;-62
2024/04/13 01:34:22;;;;;;;27.20;8.10;;;;;;;16.85;59.05;99738.43;67947;1276;1016250;-70
2024/04/13 01:37:24;;;;;;;21.50;7.80;;;;;;;16.91;58.91;99734.86;67932;1276;1016461;-63
2024/04/13 01:40:26;;;;;;;28.80;8.10;;;;;;;16.99;58.59;99736.42;67868;1276;1016504;-65
2024/04/13 01:43:28;;;;;;;24.10;8.00;;;;;;;17.00;58.32;99735.98;67889;1276;1016514;-63
2024/04/13 01:46:31;;;;;;;23.60;7.50;;;;;;;17.06;57.99;99730.55;67908;1276;1016835;-66
2024/04/13 01:49:33;;;;;;;25.00;7.90;;;;;;;16.97;58.31;99736.04;67913;1276;1016666;-62
2024/04/13 01:52:36;;;;;;;24.80;7.90;;;;;;;16.94;58.39;99735.50;67917;1276;1016425;-65
2024/04/13 01:55:38;;;;;;;25.60;8.30;;;;;;;16.93;58.43;99735.20;67938;1276;1016442;-65
2024/04/13 01:58:41;;;;;;;28.40;7.90;;;;;;;17.23;57.54;99727.60;67897;1276;1016731;-62
2024/04/13 02:01:43;;;;;;;25.70;8.60;;;;;;;17.01;58.23;99730.23;67902;1276;1016449;-62
2024/04/13 02:04:45;;;;;;;21.50;7.00;;;;;;;16.99;58.35;99730.74;67824;1276;1016446;-62
2024/04/13 02:07:47;;;;;;;26.10;8.80;;;;;;;16.95;58.47;99734.01;67912;1276;1016367;-61
2024/04/13 02:10:50;;;;;;;24.70;7.60;;;;;;;16.95;58.58;99731.19;67841;1276;1016259;-70
2024/04/13 02:13:52;;;;;;;22.70;7.40;;;;;;;16.93;58.95;99729.42;67944;1276;1016448;-70
2024/04/13 02:16:54;;;;;;;25.00;7.70;;;;;;;16.92;58.92;99724.88;67914;1276;1016433;-62
2024/04/13 02:19:56;;;;;;;25.60;7.60;;;;;;;16.99;58.65;99724.41;67891;1276;1016004;-63
2024/04/13 02:22:59;;;;;;;23.00;7.60;;;;;;;17.11;58.29;99712.88;67906;1276;1016400;-69
2024/04/13 02:26:01;;;;;;;25.00;7.90;;;;;;;17.02;58.63;99713.40;67886;1276;1016456;-70
2024/04/13 02:29:05;;;;;;;22.80;7.50;;;;;;;16.93;58.93;99712.98;67894;1276;1016171;-63
2024/04/13 02:32:07;;;;;;;27.80;8.50;;;;;;;16.90;59.02;99709.70;67899;1276;1016468;-62
2024/04/13 02:35:09;;;;;;;21.50;7.50;;;;;;;16.89;59.18;99711.83;67912;1276;1016378;-62
2024/04/13 02:38:11;;;;;;;23.60;7.40;;;;;;;17.04;58.58;99711.45;67907;1276;1016383;-63
2024/04/13 02:41:14;;;;;;;23.50;7.20;;;;;;;17.04;58.66;99712.70;67930;1276;1018809;-62
2024/04/13 02:44:16;;;;;;;25.30;7.60;;;;;;;17.06;58.60;99715.23;67940;1276;1016334;-63
2024/04/13 02:47:18;;;;;;;24.00;8.00;;;;;;;17.11;58.33;99708.13;67905;1276;1016097;-70
2024/04/13 02:50:21;;;;;;;25.90;7.80;;;;;;;17.10;58.24;99711.42;67922;1276;1016472;-70
2024/04/13 02:53:23;;;;;;;;;;;;;;;17.05;58.34;99712.14;67860;1276;1016320;-63
2024/04/13 02:56:25;;;;;;;24.80;7.80;;;;;;;16.94;58.74;99711.49;67869;1276;1016664;-63
2024/04/13 02:59:28;;;;;;;27.00;7.90;;;;;;;16.94;58.82;99712.73;67846;1276;1018566;-65
2024/04/13 03:02:31;;;;;;;25.00;8.20;;;;;;;16.90;58.86;99714.77;67939;1276;1016572;-62
2024/04/13 03:05:33;;;;;;;23.60;7.10;;;;;;;16.95;58.78;99714.44;67895;1276;1016442;-62
2024/04/13 03:08:35;;;;;;;22.40;7.80;;;;;;;17.08;58.27;99712.21;67912;1276;1016289;-62
2024/04/13 03:11:37;;;;;;;24.10;7.50;;;;;;;16.97;58.78;99716.41;67816;1276;1016446;-63
2024/04/13 03:14:39;;;;;;;21.70;7.80;;;;;;;16.96;58.74;99718.75;67903;1276;1016596;-65
2024/04/13 03:17:42;;;;;;;27.10;7.60;;;;;;;16.99;58.57;99714.83;67826;1276;1019522;-62
2024/04/13 03:20:44;;;;;;;27.50;7.70;;;;;;;16.99;58.54;99711.35;67938;1276;1016365;-62
2024/04/13 03:23:46;;;;;;;23.10;7.10;;;;;;;16.94;58.66;99713.92;67923;1276;1015750;-62
2024/04/13 03:26:48;;;;;;;22.60;7.60;;;;;;;16.93;58.83;99712.44;67924;1276;1017485;-70
2024/04/13 03:29:51;;;;;;;26.30;7.60;;;;;;;16.87;59.06;99712.35;67879;1276;1016480;-62
2024/04/13 03:32:53;;;;;;;25.00;8.90;;;;;;;16.87;59.21;99713.38;67903;1276;1017572;-69
2024/04/13 03:35:55;;;;;;;25.60;9.00;;;;;;;16.90;59.19;99711.60;67887;1276;1016444;-66
2024/04/13 03:38:58;;;;;;;27.60;10.30;;;;;;;16.90;59.28;99707.33;67898;1276;1016349;-71
2024/04/13 03:42:01;;;;;;;33.10;10.40;;;;;;;16.96;59.40;99699.53;67924;1276;1015658;-70
2024/04/13 03:45:04;;;;;;;38.40;13.70;;;;;;;16.85;59.87;99703.29;67917;1276;1016279;-67
2024/04/13 03:48:06;;;;;;;29.30;11.20;;;;;;;16.79;60.09;99707.80;67927;1276;1016246;-69
2024/04/13 03:51:09;;;;;;;26.00;9.50;;;;;;;16.77;60.39;99713.04;67914;1276;1016399;-62
2024/04/13 03:54:11;;;;;;;26.90;8.50;;;;;;;16.83;60.40;99711.23;65508;1276;5393261;-62
2024/04/13 03:57:14;;;;;;;22.80;7.10;;;;;;;17.00;59.98;99715.64;67904;1276;1015925;-65
2024/04/13 04:00:16;;;;;;;23.60;7.70;;;;;;;16.97;60.13;99727.00;67884;1276;1016479;-63
2024/04/13 04:03:19;;;;;;;21.60;7.20;;;;;;;16.97;60.07;99732.10;67938;1276;1016463;-69
2024/04/13 04:06:21;;;;;;;22.90;7.20;;;;;;;17.00;60.30;99729.27;67905;1276;1018122;-63
2024/04/13 04:09:24;;;;;;;23.10;7.70;;;;;;;17.13;60.03;99732.04;67896;1276;1016481;-70
2024/04/13 04:12:26;;;;;;;25.80;8.10;;;;;;;17.10;60.54;99737.23;67935;1276;1016381;-69
2024/04/13 04:15:29;;;;;;;25.90;8.40;;;;;;;17.09;60.55;99728.23;67963;1276;1016222;-62
2024/04/13 04:18:31;;;;;;;21.50;7.10;;;;;;;17.05;60.96;99728.34;67931;1276;1016485;-62
2024/04/13 04:21:33;;;;;;;22.40;7.50;;;;;;;17.05;60.95;99724.27;67905;1276;1016440;-62
2024/04/13 04:24:37;;;;;;;23.30;7.10;;;;;;;16.94;61.38;99722.05;67920;1276;1016427;-67
2024/04/13 04:27:39;;;;;;;26.50;8.00;;;;;;;17.02;61.10;99722.71;67909;1276;1016494;-69
2024/04/13 04:30:41;;;;;;;22.10;7.00;;;;;;;17.11;60.88;99720.11;67873;1276;1016093;-69
2024/04/13 04:33:44;;;;;;;25.60;7.50;;;;;;;17.18;60.76;99725.43;67906;1276;1016467;-67
2024/04/13 04:36:46;;;;;;;25.40;7.60;;;;;;;17.17;61.04;99723.57;67896;1276;1016400;-63
2024/04/13 04:39:48;;;;;;;23.80;7.50;;;;;;;17.13;61.52;99724.55;67894;1276;1016685;-69
2024/04/13 04:42:50;;;;;;;22.40;7.30;;;;;;;17.24;61.39;99726.10;67910;1276;1016383;-68
2024/04/13 04:45:52;;;;;;;23.50;7.70;;;;;;;17.35;61.07;99722.27;67931;1276;1016208;-69
2024/04/13 04:48:55;;;;;;;25.20;9.10;;;;;;;17.45;60.60;99728.95;67894;1276;1016234;-63
2024/04/13 04:51:57;;;;;;;23.50;7.80;;;;;;;17.46;60.76;99730.32;67961;1276;1016661;-69
2024/04/13 04:55:01;;;;;;;22.10;7.50;;;;;;;17.47;60.76;99737.45;67932;1276;1016097;-69
2024/04/13 04:58:03;;;;;;;22.10;7.10;;;;;;;17.48;60.79;99732.42;67913;1276;1018962;-70
2024/04/13 05:01:06;;;;;;;23.20;7.30;;;;;;;17.56;60.63;99735.90;67917;1276;1016354;-62
2024/04/13 05:04:09;;;;;;;22.30;6.90;;;;;;;17.67;60.11;99736.46;67935;1276;1016366;-70
2024/04/13 05:07:11;;;;;;;22.70;7.30;;;;;;;17.75;59.59;99733.20;67913;1276;1016276;-70
2024/04/13 05:10:14;;;;;;;22.10;7.10;;;;;;;17.68;60.05;99742.39;67819;1276;1016500;-69
2024/04/13 05:13:16;;;;;;;25.70;7.70;;;;;;;17.71;60.07;99745.00;67882;1276;1016370;-63
2024/04/13 05:16:18;;;;;;;25.20;7.10;;;;;;;17.75;60.08;99750.39;67929;1253;1016490;-70
2024/04/13 05:19:21;;;;;;;22.60;7.00;;;;;;;17.82;60.02;99749.64;67884;1276;1016331;-62
2024/04/13 05:22:24;;;;;;;;;;;;;;;17.87;60.08;99748.44;67902;1276;1018904;-69
2024/04/13 05:25:26;;;;;;;24.70;8.90;;;;;;;17.97;59.76;99745.59;67860;1276;1015665;-70
2024/04/13 05:28:28;;;;;;;38.70;15.00;;;;;;;18.06;59.62;99749.99;67886;1276;1016363;-62
2024/04/13 05:31:30;;;;;;;28.60;9.20;;;;;;;18.08;59.73;99753.92;67940;1276;1016328;-69
2024/04/13 05:34:32;;;;;;;23.10;7.50;;;;;;;18.19;59.31;99756.42;67876;1276;1016429;-70
2024/04/13 05:37:35;;;;;;;22.50;6.70;;;;;;;18.19;59.18;99760.29;67948;1276;1016484;-63
2024/04/13 05:40:38;;;;;;;26.20;7.30;;;;;;;18.14;59.38;99758.03;67941;1276;1016142;-64
2024/04/13 05:43:40;;;;;;;25.50;7.80;;;;;;;18.34;58.78;99761.45;67922;1276;1015832;-69
2024/04/13 05:46:42;;;;;;;22.80;6.90;;;;;;;18.47;58.86;99735.58;67945;1276;1016583;-69
2024/04/13 05:49:45;;;;;;;20.10;6.30;;;;;;;18.43;58.86;99749.08;67943;1276;1016364;-63
2024/04/13 05:52:47;;;;;;;21.70;7.20;;;;;;;18.42;58.95;99738.70;67941;1276;1016370;-63
2024/04/13 05:55:50;;;;;;;22.20;6.40;;;;;;;18.71;57.96;99738.16;67903;1276;1016439;-64
2024/04/13 05:58:53;;;;;;;22.30;7.30;;;;;;;18.83;58.07;99736.79;67963;1276;1016415;-66
2024/04/13 06:01:56;;;;;;;22.80;6.50;;;;;;;18.89;58.11;99738.34;67916;1276;1016378;-63
2024/04/13 06:04:58;;;;;;;21.80;7.20;;;;;;;18.91;58.00;99733.39;67916;1276;1016473;-63
2024/04/13 06:08:00;;;;;;;21.90;6.70;;;;;;;19.08;58.22;99731.66;67914;1276;1016390;-63
2024/04/13 06:11:03;;;;;;;22.20;6.40;;;;;;;19.03;58.28;99732.60;67928;1276;1016391;-70
2024/04/13 06:14:05;;;;;;;20.20;6.70;;;;;;;19.00;58.37;99736.05;67921;1276;1016449;-63
2024/04/13 06:17:07;;;;;;;22.60;6.20;;;;;;;18.97;58.27;99739.77;67940;1276;1016489;-69
2024/04/13 06:20:10;;;;;;;21.40;6.70;;;;;;;18.96;58.88;99734.45;67871;1276;1016808;-63
2024/04/13 06:23:13;;;;;;;20.00;6.60;;;;;;;19.07;58.91;99735.66;67864;1276;1016472;-70
2024/04/13 06:26:15;;;;;;;19.60;6.40;;;;;;;19.26;58.39;99728.19;67944;1276;1016632;-63
2024/04/13 06:29:17;;;;;;;22.80;7.00;;;;;;;19.65;57.51;99725.85;67873;1276;1018571;-69
2024/04/13 06:32:20;;;;;;;;;;;;;;;19.82;57.82;99728.90;67910;1276;1016395;-63
2024/04/13 06:35:22;;;;;;;22.30;7.20;;;;;;;19.90;56.87;99735.67;67868;1276;1016475;-63
2024/04/13 06:38:26;;;;;;;19.70;6.50;;;;;;;20.17;57.33;99727.70;67891;1276;1018804;-66
2024/04/13 06:41:29;;;;;;;21.70;6.60;;;;;;;20.45;56.70;99735.20;67894;1276;1016485;-69
2024/04/13 06:44:31;;;;;;;21.40;6.30;;;;;;;20.55;55.51;99736.45;67961;1276;1016123;-69
2024/04/13 06:47:33;;;;;;;20.10;6.30;;;;;;;20.56;55.99;99727.99;67947;1276;1019479;-70
2024/04/13 06:50:35;;;;;;;19.80;6.40;;;;;;;20.65;56.20;99739.90;67904;1276;1016400;-63
2024/04/13 06:53:39;;;;;;;20.80;6.70;;;;;;;20.82;55.38;99735.52;67845;1276;1016409;-69
2024/04/13 06:56:41;;;;;;;21.10;7.00;;;;;;;20.82;54.90;99739.47;67924;1276;1016899;-63
2024/04/13 06:59:45;;;;;;;22.20;7.40;;;;;;;20.90;55.48;99735.50;67909;1276;1016351;-69
2024/04/13 07:02:47;;;;;;;21.00;7.80;;;;;;;21.01;55.52;99732.96;67915;1276;1016079;-69
2024/04/13 07:05:49;;;;;;;;;;;;;;;21.29;56.18;99726.27;67898;1276;1016276;-63
2024/04/13 07:08:51;;;;;;;20.70;7.60;;;;;;;21.56;55.69;99735.07;67911;1276;1016209;-63
2024/04/13 07:11:53;;;;;;;22.70;8.30;;;;;;;21.72;55.22;99729.48;67910;1276;1016524;-63
2024/04/13 07:14:56;;;;;;;21.50;7.40;;;;;;;21.68;54.18;99729.83;67927;1276;1016198;-64
2024/04/13 07:17:58;;;;;;;22.40;8.40;;;;;;;21.71;54.64;99725.10;67946;1276;1016408;-63
2024/04/13 07:21:01;;;;;;;22.50;8.80;;;;;;;21.78;54.51;99725.70;67923;1276;1019558;-63
2024/04/13 07:24:04;;;;;;;22.20;8.20;;;;;;;21.99;53.88;99722.67;67887;1276;1016784;-69
2024/04/13 07:27:07;;;;;;;22.50;9.10;;;;;;;22.04;54.16;99720.65;67889;1276;1017733;-64
2024/04/13 07:30:09;;;;;;;24.80;9.10;;;;;;;22.26;53.15;99715.17;67859;1276;1016008;-68
2024/04/13 07:33:11;;;;;;;24.20;8.80;;;;;;;22.50;52.84;99717.17;67905;1276;1016413;-69
2024/04/13 07:36:13;;;;;;;23.30;9.10;;;;;;;22.60;52.09;99724.27;67896;1276;1016030;-69
2024/04/13 07:39:16;;;;;;;;;;;;;;;22.76;52.08;99722.64;67933;1276;1016318;-64
2024/04/13 07:42:18;;;;;;;24.00;9.90;;;;;;;22.88;51.50;99720.58;67888;1276;1016337;-63
2024/04/13 07:45:20;;;;;;;;;;;;;;;22.78;51.66;99723.55;67912;1276;1016339;-69
2024/04/13 07:48:22;;;;;;;24.10;10.10;;;;;;;22.67;51.86;99724.62;67933;1276;1016583;-69
2024/04/13 07:51:24;;;;;;;;;;;;;;;22.74;50.46;99724.32;67885;1276;1016507;-68
2024/04/13 07:54:27;;;;;;;24.10;10.10;;;;;;;23.00;50.22;99726.58;67890;1276;1016275;-63
2024/04/13 07:57:29;;;;;;;;;;;;;;;23.09;48.97;99724.61;67907;1276;1016653;-69
2024/04/13 08:00:31;;;;;;;25.80;9.90;;;;;;;23.18;50.17;99719.84;67860;1276;1017108;-70
2024/04/13 08:03:33;;;;;;;25.50;9.90;;;;;;;23.29;48.78;99720.75;67918;1276;1016101;-70
2024/04/13 08:06:36;;;;;;;23.00;9.50;;;;;;;23.26;47.80;99722.30;67921;1276;1016216;-63
2024/04/13 08:09:41;;;;;;;24.20;9.50;;;;;;;23.24;47.80;99719.61;67910;1276;1016386;-62
2024/04/13 08:12:43;;;;;;;24.40;9.70;;;;;;;23.27;46.54;99713.70;67868;1276;1016420;-69
2024/04/13 08:15:45;;;;;;;;;;;;;;;23.18;47.46;99708.22;67925;1276;1016492;-63
2024/04/13 08:18:48;;;;;;;23.10;9.10;;;;;;;23.20;47.10;99715.73;67914;1276;1016529;-69
2024/04/13 08:21:51;;;;;;;;;;;;;;;23.38;46.70;99703.88;67914;1276;1016066;-65
2024/04/13 08:24:54;;;;;;;25.40;9.50;;;;;;;23.56;46.91;99710.52;67905;1276;1016360;-67
2024/04/13 08:27:56;;;;;;;25.50;9.80;;;;;;;23.85;45.81;99712.63;67933;1276;1016747;-62
2024/04/13 08:30:58;;;;;;;;;;;;;;;23.93;45.30;99715.48;67891;1276;1016216;-69
2024/04/13 08:34:00;;;;;;;24.30;8.30;;;;;;;23.80;45.36;99705.55;67880;1276;1016467;-63
2024/04/13 08:37:03;;;;;;;;;;;;;;;23.81;44.77;99713.09;67895;1276;1015944;-63
2024/04/13 08:40:05;;;;;;;22.30;8.20;;;;;;;23.86;43.90;99722.45;67883;1276;1016491;-67
2024/04/13 08:43:08;;;;;;;23.60;8.20;;;;;;;23.65;43.92;99714.77;67922;1276;1016433;-69
2024/04/13 08:46:10;;;;;;;21.90;7.40;;;;;;;24.00;44.12;99710.14;67912;1276;1016912;-69
2024/04/13 08:49:13;;;;;;;;;;;;;;;24.20;42.08;99734.84;67919;1276;1016404;-69
2024/04/13 08:52:15;;;;;;;23.30;7.90;;;;;;;23.74;42.21;99722.45;67883;1276;1016565;-66
2024/04/13 08:55:17;;;;;;;;;;;;;;;23.52;42.75;99733.05;67905;1276;1016592;-69
2024/04/13 08:58:20;;;;;;;25.40;7.70;;;;;;;23.64;43.50;99726.30;67898;1276;1019599;-69
2024/04/13 09:01:22;;;;;;;;;;;;;;;23.87;42.84;99727.23;67953;1276;1016079;-69
2024/04/13 09:04:24;;;;;;;21.00;7.00;;;;;;;24.06;42.84;99730.79;67920;1276;1016857;-69
2024/04/13 09:07:26;;;;;;;;;;;;;;;24.40;42.38;99716.77;67923;1276;1017341;-63
2024/04/13 09:10:29;;;;;;;19.00;6.80;;;;;;;24.60;41.63;99715.38;67890;1276;1016424;-68
2024/04/13 09:13:31;;;;;;;22.90;7.50;;;;;;;24.54;40.20;99720.98;67877;1276;1016374;-69
2024/04/13 09:16:34;;;;;;;21.00;6.30;;;;;;;24.52;41.32;99705.48;67911;1276;1016513;-69
2024/04/13 09:19:36;;;;;;;;;;;;;;;24.53;40.89;99711.26;67917;1276;1019369;-64
2024/04/13 09:22:38;;;;;;;21.00;6.70;;;;;;;24.51;40.64;99709.70;67936;1276;1016699;-63
2024/04/13 09:25:40;;;;;;;20.10;7.30;;;;;;;24.30;40.85;99703.33;67932;1276;1016480;-63
2024/04/13 09:28:42;;;;;;;;;;;;;;;24.56;41.55;99708.95;67949;1276;1016487;-69
2024/04/13 09:31:45;;;;;;;18.20;5.60;;;;;;;24.50;41.29;99696.56;67902;1276;1016694;-69
2024/04/13 09:34:47;;;;;;;20.60;6.40;;;;;;;24.35;41.20;99706.52;67896;1276;1015933;-69
2024/04/13 09:37:49;;;;;;;;;;;;;;;24.14;40.98;99697.05;67808;1276;1016416;-69
2024/04/13 09:40:51;;;;;;;19.20;6.60;;;;;;;24.32;41.44;99705.81;67886;1276;1016818;-69
2024/04/13 09:43:54;;;;;;;19.60;6.50;;;;;;;24.72;41.40;99693.20;67870;1276;1016088;-65
2024/04/13 09:46:56;;;;;;;;;;;;;;;24.57;40.63;99690.97;67931;1276;1016262;-65
2024/04/13 09:49:58;;;;;;;22.90;6.60;;;;;;;24.99;41.45;99690.13;67908;1276;1016279;-68
2024/04/13 09:53:01;;;;;;;;;;;;;;;25.46;39.74;99673.18;67921;1276;1015914;-63
2024/04/13 09:56:03;;;;;;;20.70;6.40;;;;;;;25.74;39.53;99669.79;67891;1276;1016385;-63
2024/04/13 09:59:06;;;;;;;20.50;6.20;;;;;;;24.98;39.61;99691.52;67884;1276;1016387;-67
2024/04/13 10:02:08;;;;;;;;;;;;;;;24.78;40.62;99679.50;67889;1276;1016684;-69
2024/04/13 10:05:10;;;;;;;18.30;6.60;;;;;;;24.73;41.06;99670.88;67892;1276;1016343;-64
2024/04/13 10:08:12;;;;;;;;;;;;;;;24.87;40.59;99669.42;67885;1276;1016498;-64
2024/04/13 10:11:14;;;;;;;18.20;6.20;;;;;;;25.00;40.48;99668.56;67897;1276;1016500;-69
2024/04/13 10:14:17;;;;;;;19.20;6.40;;;;;;;25.18;40.54;99673.71;67932;1276;1016196;-64
2024/04/13 10:17:19;;;;;;;21.60;6.40;;;;;;;25.31;40.45;99660.70;67918;1276;1016452;-68
2024/04/13 10:20:21;;;;;;;20.50;6.70;;;;;;;25.46;39.98;99663.98;67879;1276;1016336;-62
2024/04/13 10:23:24;;;;;;;20.70;6.00;;;;;;;25.63;38.62;99660.73;67895;1276;1016294;-68
2024/04/13 10:26:26;;;;;;;;;;;;;;;25.73;38.32;99638.93;67884;1276;1016362;-67
2024/04/13 10:29:28;;;;;;;;;;;;;;;25.60;38.19;99653.76;67920;1276;1018918;-69
2024/04/13 10:32:31;;;;;;;16.70;5.30;;;;;;;25.61;38.93;99656.57;67902;1276;1019059;-69
2024/04/13 10:35:33;;;;;;;18.10;5.10;;;;;;;26.06;38.49;99650.80;67935;1276;1016479;-68
2024/04/13 10:38:35;;;;;;;;;;;;;;;26.15;37.34;99649.33;67935;1276;1016323;-69
2024/04/13 10:41:38;;;;;;;18.90;5.20;;;;;;;26.39;37.77;99636.13;67866;1276;1016479;-63
2024/04/13 10:44:40;;;;;;;16.40;4.60;;;;;;;26.37;37.34;99647.50;67882;1276;1016237;-69
2024/04/13 10:47:43;;;;;;;14.40;4.10;;;;;;;25.91;36.08;99650.02;67897;1276;1017215;-69
2024/04/13 10:50:45;;;;;;;12.80;4.20;;;;;;;25.88;36.09;99645.96;67940;1276;1016030;-69
2024/04/13 10:53:47;;;;;;;13.10;3.80;;;;;;;26.01;36.48;99640.96;67941;1276;1016392;-68
2024/04/13 10:56:49;;;;;;;;;;;;;;;25.83;36.06;99655.19;67902;1276;1016468;-68
2024/04/13 10:59:52;;;;;;;;;;;;;;;25.83;36.28;99637.27;67921;1276;1016463;-68
2024/04/13 11:02:54;;;;;;;;;;;;;;;25.81;35.14;99657.52;67882;1276;1016436;-69
2024/04/13 11:05:56;;;;;;;14.90;4.10;;;;;;;25.56;34.93;99658.51;67887;1276;1020290;-69
2024/04/13 11:08:58;;;;;;;14.50;3.60;;;;;;;25.73;35.41;99636.91;67865;1276;1016447;-69
2024/04/13 11:12:01;;;;;;;15.30;3.60;;;;;;;26.07;34.97;99633.92;67907;1276;1016118;-69
2024/04/13 11:15:03;;;;;;;12.50;3.40;;;;;;;26.29;34.86;99633.54;67917;1276;1017783;-69
2024/04/13 11:18:05;;;;;;;12.80;3.10;;;;;;;26.39;34.38;99647.34;67917;1276;1016454;-69
2024/04/13 11:21:07;;;;;;;12.20;3.00;;;;;;;26.52;34.34;99623.95;67925;1276;1016429;-63
2024/04/13 11:24:10;;;;;;;11.00;3.30;;;;;;;26.36;33.88;99612.66;67932;1276;1017553;-68
2024/04/13 11:27:12;;;;;;;9.70;3.00;;;;;;;26.27;34.26;99607.23;67904;1276;1016321;-69
2024/04/13 11:30:14;;;;;;;11.30;2.90;;;;;;;26.18;33.71;99615.41;67857;1276;1016507;-69
2024/04/13 11:33:17;;;;;;;7.90;2.90;;;;;;;26.42;34.83;99605.52;67885;1276;1016220;-68
2024/04/13 11:36:20;;;;;;;12.30;2.90;;;;;;;26.42;32.70;99613.45;67935;1276;1016764;-69
2024/04/13 11:39:22;;;;;;;10.40;3.00;;;;;;;26.11;33.39;99613.85;67920;1276;1016471;-69
2024/04/13 11:42:24;;;;;;;9.50;3.00;;;;;;;26.08;34.04;99623.00;67904;1276;1016437;-69
2024/04/13 11:45:26;;;;;;;;;;;;;;;26.17;33.86;99622.90;67875;1276;1016461;-67
2024/04/13 11:48:29;;;;;;;;;;;;;;;26.05;33.78;99617.30;67863;1276;1016501;-68
2024/04/13 11:51:32;;;;;;;11.70;2.70;;;;;;;26.03;33.05;99613.01;67921;1276;1016313;-69
2024/04/13 11:54:34;;;;;;;10.20;2.80;;;;;;;26.07;33.59;99612.52;67903;1276;1016454;-69
2024/04/13 11:57:36;;;;;;;;;;;;;;;25.88;33.65;99607.65;67911;1276;1016417;-69
2024/04/13 12:00:39;;;;;;;;;;;;;;;26.02;34.47;99614.20;67893;1276;1016683;-69
2024/04/13 12:03:41;;;;;;;10.30;3.00;;;;;;;26.19;33.78;99608.55;67895;1276;1016277;-68
2024/04/13 12:06:44;;;;;;;14.70;3.30;;;;;;;26.30;33.89;99616.62;67904;1276;1016292;-69
2024/04/13 12:09:46;;;;;;;9.00;2.70;;;;;;;26.29;32.79;99611.55;67918;1276;1016360;-69
2024/04/13 12:12:48;;;;;;;14.30;2.70;;;;;;;26.32;31.63;99609.90;67912;1276;1016126;-68
2024/04/13 12:15:50;;;;;;;12.50;2.70;;;;;;;26.35;31.85;99606.27;67924;1276;1016358;-69
2024/04/13 12:18:52;;;;;;;12.30;3.00;;;;;;;26.47;31.58;99584.69;67891;1276;1016313;-69
2024/04/13 12:21:55;;;;;;;11.50;2.60;;;;;;;26.80;31.82;99568.27;67856;1276;1019227;-69
2024/04/13 12:24:57;;;;;;;7.90;2.40;;;;;;;26.94;31.41;99578.17;67888;1276;1016146;-69
2024/04/13 12:27:59;;;;;;;13.30;2.50;;;;;;;26.99;31.37;99567.67;67900;1276;1016447;-68
2024/04/13 12:31:02;;;;;;;7.20;2.40;;;;;;;26.82;29.68;99568.48;67899;1276;1016492;-69
2024/04/13 12:34:06;;;;;;;6.60;2.10;;;;;;;26.83;30.16;99571.03;67934;1276;1016368;-69
2024/04/13 12:37:08;;;;;;;9.60;2.40;;;;;;;26.96;29.51;99563.05;67908;1276;1016108;-66
2024/04/13 12:40:10;;;;;;;9.00;2.20;;;;;;;27.03;29.77;99551.66;67920;1276;1016408;-69
2024/04/13 12:43:13;;;;;;;14.30;2.70;;;;;;;27.12;30.67;99553.36;67896;1276;1016289;-67
2024/04/13 12:46:15;;;;;;;8.30;2.30;;;;;;;26.97;29.86;99545.88;67883;1276;1017980;-69
2024/04/13 12:49:17;;;;;;;11.50;2.40;;;;;;;27.04;29.20;99540.20;67875;1276;1016429;-69
2024/04/13 12:52:20;;;;;;;8.80;2.40;;;;;;;26.97;28.68;99535.48;67866;1276;1016366;-69
2024/04/13 12:55:23;;;;;;;11.50;2.70;;;;;;;27.04;27.11;99536.19;67897;1276;1016011;-70
2024/04/13 12:58:25;;;;;;;7.80;1.90;;;;;;;26.86;27.04;99543.16;67906;1276;1016527;-69
2024/04/13 13:01:28;;;;;;;8.30;2.30;;;;;;;26.86;27.81;99537.52;67898;1276;1016283;-66
2024/04/13 13:04:30;;;;;;;8.30;1.90;;;;;;;27.08;27.35;99539.23;67911;1276;1016482;-69
2024/04/13 13:07:32;;;;;;;7.60;1.90;;;;;;;27.07;27.46;99536.77;67915;1276;1016515;-69
2024/04/13 13:10:35;;;;;;;6.50;1.60;;;;;;;27.25;26.58;99524.65;67876;1276;1018064;-69
2024/04/13 13:13:37;;;;;;;9.10;1.80;;;;;;;27.14;26.13;99543.84;67872;1276;1016400;-64
2024/04/13 13:16:39;;;;;;;12.20;2.50;;;;;;;26.96;26.40;99533.61;67887;1276;1016454;-69
2024/04/13 13:19:42;;;;;;;5.90;1.80;;;;;;;26.94;26.11;99525.46;67901;1276;1016333;-69
2024/04/13 13:22:44;;;;;;;9.10;2.10;;;;;;;26.80;26.50;99537.70;67928;1276;1016695;-69
2024/04/13 13:25:46;;;;;;;9.30;2.00;;;;;;;26.95;26.69;99529.73;67922;1276;1016464;-69
2024/04/13 13:28:48;;;;;;;7.00;2.00;;;;;;;26.99;27.09;99526.59;67909;1276;1016349;-64
2024/04/13 13:31:51;;;;;;;7.80;2.00;;;;;;;27.11;28.20;99530.06;67940;1276;1016553;-69
2024/04/13 13:34:53;;;;;;;7.10;1.70;;;;;;;27.10;27.28;99525.84;67920;1276;1016588;-69
2024/04/13 13:37:55;;;;;;;8.90;2.10;;;;;;;26.74;27.23;99529.90;67894;1276;1016495;-69
2024/04/13 13:40:57;;;;;;;5.30;1.90;;;;;;;26.67;27.32;99523.52;67874;1276;1018123;-67
2024/04/13 13:44:00;;;;;;;7.40;1.80;;;;;;;26.72;27.05;99527.27;67865;1276;1016995;-65
2024/04/13 13:47:03;;;;;;;9.90;2.10;;;;;;;26.66;27.29;99531.00;67914;1276;1016427;-69
2024/04/13 13:50:05;;;;;;;7.00;1.80;;;;;;;26.68;27.12;99522.08;67899;1276;1016368;-69
2024/04/13 13:53:07;;;;;;;11.00;1.90;;;;;;;26.65;27.37;99515.33;67911;1276;1016606;-67
2024/04/13 13:56:10;;;;;;;7.10;1.70;;;;;;;26.75;27.31;99506.45;67881;1276;1016358;-68
2024/04/13 13:59:12;;;;;;;11.80;2.10;;;;;;;26.64;26.72;99502.94;67925;1276;1018505;-69
2024/04/13 14:02:14;;;;;;;6.80;2.00;;;;;;;26.77;27.34;99514.68;67896;1276;1016440;-67